Macon, GA

9:06 AM EDT on August 05, 2015 (GMT -0400)
Rocky Creek WWTP | | Change Station
CLOSE
Current Station
Personal Weather Station
Location: Macon, GA
Elevation: 322 ft
Nearby Weather Stations

Elev 322 ft 32.77 °N, 83.64 °W | Updated 46 seconds ago

Clear
Clear
79.3 °F
Feels Like 83 °F
N
1.0
Wind Variable Wind from WSW
Gusts 1.0 mph

Today
High -- | Low -- °F
--% Chance of Precip.
Yesterday
High -- | Low -- °F
Precip. -- in
6:51 AM 8:29 PM
Waning Gibbous, 67% visible
Pressure 30.04 in
Visibility 10.0 miles
Clouds Clear
Heat Index 83 °F
Dew Point 75 °F
Humidity 86%
Rainfall 0.00 in
Snow Depth Not available.
UV 2 out of 12
Pollen 5.80 out of 12
Air Quality Not available.
Flu Activity Not available.
METAR KMCN 051253Z 00000KT 10SM CLR 27/23 A3006 RMK AO2 SLP171 T02670228

More Conditions Fewer Conditions

Pressure 30.04 in
Visibility 10.0 miles
Clouds Clear
Heat Index 83 °F
Dew Point 75 °F
Humidity 86%
Rainfall 0.00 in
Snow Depth Not available.
UV 2 out of 12
Pollen 5.80 out of 12
Air Quality Not available.
Flu Activity Not available.
METAR KMCN 051253Z 00000KT 10SM CLR 27/23 A3006 RMK AO2 SLP171 T02670228

More Conditions Fewer Conditions

10-Day Weather Forecast

×

Almanac

Astronomy

Aug. 05, 2015 Rise Set
Actual Time
Civil Twilight
Nautical Twilight
Astronomical Twilight
Moon
Length of Visible Light
Length of Day
Tomorrow will be .
, % of the Moon is Illuminated

Today's Extremes

State Highs State Lows

Community

WunderPhotos

Upload Photos

1,844,177 photos uploaded!

WunderBlogs® & News

Nearby

Air Quality

  Air Quality AQ Index Pollutant
Not available.

Snow Depth

Station Depth Elevation

Earthquake Activity

City Distance Mag. Time & Date
Minimum magnitude displayed is 2.5.

Coastal Water Temperatures

Place Temperature

Stations

Nearby Weather Stations

Station Location Temp. Windchill Dew Point Humidity Wind Precip. Elev Updated Type